sensor_id;sensor_type;location;lat;lon;timestamp;P1;durP1;ratioP1;P2;durP2;ratioP2
19260;SDS011;9764;48.114;11.670;2022-07-04T00:00:05;1.10;;;1.00;;
19260;SDS011;9764;48.114;11.670;2022-07-04T00:02:36;1.02;;;0.93;;
19260;SDS011;9764;48.114;11.670;2022-07-04T00:05:07;1.10;;;1.00;;
19260;SDS011;9764;48.114;11.670;2022-07-04T00:07:40;1.10;;;1.00;;
19260;SDS011;9764;48.114;11.670;2022-07-04T00:10:10;1.98;;;1.02;;
19260;SDS011;9764;48.114;11.670;2022-07-04T00:12:40;0.90;;;0.90;;
19260;SDS011;9764;48.114;11.670;2022-07-04T00:15:10;1.17;;;1.00;;
19260;SDS011;9764;48.114;11.670;2022-07-04T00:17:39;1.63;;;1.00;;
19260;SDS011;9764;48.114;11.670;2022-07-04T00:20:10;0.70;;;0.70;;
19260;SDS011;9764;48.114;11.670;2022-07-04T00:22:39;0.82;;;0.80;;
19260;SDS011;9764;48.114;11.670;2022-07-04T00:25:08;0.82;;;0.82;;
19260;SDS011;9764;48.114;11.670;2022-07-04T00:27:36;0.88;;;0.80;;
19260;SDS011;9764;48.114;11.670;2022-07-04T00:30:05;1.20;;;1.00;;
19260;SDS011;9764;48.114;11.670;2022-07-04T00:32:34;2.00;;;1.00;;
19260;SDS011;9764;48.114;11.670;2022-07-04T00:35:03;1.20;;;1.10;;
19260;SDS011;9764;48.114;11.670;2022-07-04T00:37:33;1.95;;;1.00;;
19260;SDS011;9764;48.114;11.670;2022-07-04T00:40:02;1.17;;;1.02;;
19260;SDS011;9764;48.114;11.670;2022-07-04T00:42:31;0.80;;;0.77;;
19260;SDS011;9764;48.114;11.670;2022-07-04T00:44:59;1.20;;;1.10;;
19260;SDS011;9764;48.114;11.670;2022-07-04T00:47:27;1.20;;;1.08;;
19260;SDS011;9764;48.114;11.670;2022-07-04T00:50:16;1.02;;;0.90;;
19260;SDS011;9764;48.114;11.670;2022-07-04T00:52:46;1.67;;;1.00;;
19260;SDS011;9764;48.114;11.670;2022-07-04T00:55:14;1.20;;;1.10;;
19260;SDS011;9764;48.114;11.670;2022-07-04T00:57:44;1.23;;;1.13;;
19260;SDS011;9764;48.114;11.670;2022-07-04T01:00:13;1.33;;;1.10;;
19260;SDS011;9764;48.114;11.670;2022-07-04T01:02:42;1.02;;;0.93;;
19260;SDS011;9764;48.114;11.670;2022-07-04T01:05:11;1.48;;;1.13;;
19260;SDS011;9764;48.114;11.670;2022-07-04T01:07:40;0.80;;;0.80;;
19260;SDS011;9764;48.114;11.670;2022-07-04T01:10:10;0.98;;;0.98;;
19260;SDS011;9764;48.114;11.670;2022-07-04T01:12:39;1.00;;;0.90;;
19260;SDS011;9764;48.114;11.670;2022-07-04T01:15:07;0.73;;;0.73;;
19260;SDS011;9764;48.114;11.670;2022-07-04T01:17:36;1.08;;;0.93;;
19260;SDS011;9764;48.114;11.670;2022-07-04T01:20:05;1.55;;;1.17;;
19260;SDS011;9764;48.114;11.670;2022-07-04T01:22:38;1.95;;;1.20;;
19260;SDS011;9764;48.114;11.670;2022-07-04T01:25:08;1.27;;;1.00;;
19260;SDS011;9764;48.114;11.670;2022-07-04T01:27:36;1.02;;;0.90;;
19260;SDS011;9764;48.114;11.670;2022-07-04T01:30:05;1.23;;;1.10;;
19260;SDS011;9764;48.114;11.670;2022-07-04T01:32:35;0.90;;;0.90;;
19260;SDS011;9764;48.114;11.670;2022-07-04T01:35:03;1.10;;;1.00;;
19260;SDS011;9764;48.114;11.670;2022-07-04T01:37:32;0.98;;;0.90;;
19260;SDS011;9764;48.114;11.670;2022-07-04T01:40:01;1.10;;;1.00;;
19260;SDS011;9764;48.114;11.670;2022-07-04T01:42:29;1.90;;;1.20;;
19260;SDS011;9764;48.114;11.670;2022-07-04T01:44:58;1.40;;;0.90;;
19260;SDS011;9764;48.114;11.670;2022-07-04T01:47:26;0.90;;;0.90;;
19260;SDS011;9764;48.114;11.670;2022-07-04T01:49:55;1.20;;;0.80;;
19260;SDS011;9764;48.114;11.670;2022-07-04T01:52:23;1.33;;;1.00;;
19260;SDS011;9764;48.114;11.670;2022-07-04T01:54:53;0.75;;;0.75;;
19260;SDS011;9764;48.114;11.670;2022-07-04T01:57:22;0.88;;;0.73;;
19260;SDS011;9764;48.114;11.670;2022-07-04T01:59:50;0.80;;;0.80;;
19260;SDS011;9764;48.114;11.670;2022-07-04T02:02:36;1.00;;;0.90;;
19260;SDS011;9764;48.114;11.670;2022-07-04T02:05:05;0.85;;;0.85;;
19260;SDS011;9764;48.114;11.670;2022-07-04T02:07:33;0.80;;;0.80;;
19260;SDS011;9764;48.114;11.670;2022-07-04T02:10:03;1.23;;;0.93;;
19260;SDS011;9764;48.114;11.670;2022-07-04T02:12:32;0.70;;;0.70;;
19260;SDS011;9764;48.114;11.670;2022-07-04T02:15:18;0.90;;;0.90;;
19260;SDS011;9764;48.114;11.670;2022-07-04T02:17:47;0.90;;;0.80;;
19260;SDS011;9764;48.114;11.670;2022-07-04T02:20:15;0.95;;;0.93;;
19260;SDS011;9764;48.114;11.670;2022-07-04T02:22:43;1.90;;;1.13;;
19260;SDS011;9764;48.114;11.670;2022-07-04T02:25:13;0.70;;;0.70;;
19260;SDS011;9764;48.114;11.670;2022-07-04T02:27:41;1.20;;;1.10;;
19260;SDS011;9764;48.114;11.670;2022-07-04T02:30:10;0.95;;;0.85;;
19260;SDS011;9764;48.114;11.670;2022-07-04T02:32:39;0.95;;;0.82;;
19260;SDS011;9764;48.114;11.670;2022-07-04T02:35:08;0.80;;;0.80;;
19260;SDS011;9764;48.114;11.670;2022-07-04T02:37:37;2.15;;;1.20;;
19260;SDS011;9764;48.114;11.670;2022-07-04T02:40:06;1.33;;;0.90;;
19260;SDS011;9764;48.114;11.670;2022-07-04T02:42:37;1.20;;;1.00;;
19260;SDS011;9764;48.114;11.670;2022-07-04T02:45:06;0.93;;;0.93;;
19260;SDS011;9764;48.114;11.670;2022-07-04T02:47:35;1.00;;;0.90;;
19260;SDS011;9764;48.114;11.670;2022-07-04T02:50:04;0.88;;;0.88;;
19260;SDS011;9764;48.114;11.670;2022-07-04T02:52:33;1.20;;;0.95;;
19260;SDS011;9764;48.114;11.670;2022-07-04T02:55:01;0.90;;;0.90;;
19260;SDS011;9764;48.114;11.670;2022-07-04T02:57:30;1.10;;;0.85;;
19260;SDS011;9764;48.114;11.670;2022-07-04T02:59:59;1.48;;;1.00;;
19260;SDS011;9764;48.114;11.670;2022-07-04T03:02:27;0.95;;;0.88;;
19260;SDS011;9764;48.114;11.670;2022-07-04T03:04:56;1.38;;;0.93;;
19260;SDS011;9764;48.114;11.670;2022-07-04T03:07:24;0.70;;;0.70;;
19260;SDS011;9764;48.114;11.670;2022-07-04T03:09:52;0.82;;;0.82;;
19260;SDS011;9764;48.114;11.670;2022-07-04T03:12:21;1.40;;;0.80;;
19260;SDS011;9764;48.114;11.670;2022-07-04T03:14:49;0.98;;;0.90;;
19260;SDS011;9764;48.114;11.670;2022-07-04T03:17:21;1.17;;;0.80;;
19260;SDS011;9764;48.114;11.670;2022-07-04T03:19:49;1.10;;;1.00;;
19260;SDS011;9764;48.114;11.670;2022-07-04T03:22:17;0.85;;;0.85;;
19260;SDS011;9764;48.114;11.670;2022-07-04T03:24:46;0.85;;;0.80;;
19260;SDS011;9764;48.114;11.670;2022-07-04T03:27:15;1.00;;;0.88;;
19260;SDS011;9764;48.114;11.670;2022-07-04T03:29:44;0.80;;;0.80;;
19260;SDS011;9764;48.114;11.670;2022-07-04T03:32:12;1.13;;;0.80;;
19260;SDS011;9764;48.114;11.670;2022-07-04T03:34:42;1.15;;;0.80;;
19260;SDS011;9764;48.114;11.670;2022-07-04T03:37:10;1.13;;;0.88;;
19260;SDS011;9764;48.114;11.670;2022-07-04T03:39:39;0.98;;;0.98;;
19260;SDS011;9764;48.114;11.670;2022-07-04T03:42:07;1.25;;;0.80;;
19260;SDS011;9764;48.114;11.670;2022-07-04T03:44:36;0.88;;;0.88;;
19260;SDS011;9764;48.114;11.670;2022-07-04T03:47:04;0.95;;;0.77;;
19260;SDS011;9764;48.114;11.670;2022-07-04T03:49:32;1.83;;;0.90;;
19260;SDS011;9764;48.114;11.670;2022-07-04T03:52:02;1.13;;;0.80;;
19260;SDS011;9764;48.114;11.670;2022-07-04T03:54:31;2.03;;;0.90;;
19260;SDS011;9764;48.114;11.670;2022-07-04T03:57:00;1.42;;;0.80;;
19260;SDS011;9764;48.114;11.670;2022-07-04T03:59:28;0.80;;;0.80;;
19260;SDS011;9764;48.114;11.670;2022-07-04T04:01:56;1.17;;;0.80;;
19260;SDS011;9764;48.114;11.670;2022-07-04T04:04:27;1.00;;;0.90;;
19260;SDS011;9764;48.114;11.670;2022-07-04T04:07:18;0.95;;;0.80;;
19260;SDS011;9764;48.114;11.670;2022-07-04T04:09:46;1.60;;;0.70;;
19260;SDS011;9764;48.114;11.670;2022-07-04T04:12:14;1.15;;;0.80;;
19260;SDS011;9764;48.114;11.670;2022-07-04T04:14:45;0.80;;;0.70;;
19260;SDS011;9764;48.114;11.670;2022-07-04T04:17:14;1.15;;;0.80;;
19260;SDS011;9764;48.114;11.670;2022-07-04T04:19:42;1.15;;;1.00;;
19260;SDS011;9764;48.114;11.670;2022-07-04T04:22:10;1.02;;;0.93;;
19260;SDS011;9764;48.114;11.670;2022-07-04T04:24:40;1.42;;;0.88;;
19260;SDS011;9764;48.114;11.670;2022-07-04T04:27:10;2.92;;;0.98;;
19260;SDS011;9764;48.114;11.670;2022-07-04T04:29:39;0.73;;;0.73;;
19260;SDS011;9764;48.114;11.670;2022-07-04T04:32:07;1.25;;;1.10;;
19260;SDS011;9764;48.114;11.670;2022-07-04T04:34:36;1.02;;;0.82;;
19260;SDS011;9764;48.114;11.670;2022-07-04T04:37:04;1.88;;;1.20;;
19260;SDS011;9764;48.114;11.670;2022-07-04T04:39:32;1.23;;;1.13;;
19260;SDS011;9764;48.114;11.670;2022-07-04T04:42:02;0.70;;;0.70;;
19260;SDS011;9764;48.114;11.670;2022-07-04T04:44:31;1.00;;;0.80;;
19260;SDS011;9764;48.114;11.670;2022-07-04T04:46:59;1.20;;;0.85;;
19260;SDS011;9764;48.114;11.670;2022-07-04T04:49:30;0.88;;;0.73;;
19260;SDS011;9764;48.114;11.670;2022-07-04T04:51:58;1.02;;;0.77;;
19260;SDS011;9764;48.114;11.670;2022-07-04T04:54:26;1.15;;;1.02;;
19260;SDS011;9764;48.114;11.670;2022-07-04T04:56:55;1.50;;;0.90;;
19260;SDS011;9764;48.114;11.670;2022-07-04T04:59:25;1.60;;;1.00;;
19260;SDS011;9764;48.114;11.670;2022-07-04T05:01:53;1.17;;;0.90;;
19260;SDS011;9764;48.114;11.670;2022-07-04T05:04:22;2.35;;;1.00;;
19260;SDS011;9764;48.114;11.670;2022-07-04T05:06:50;1.50;;;1.10;;
19260;SDS011;9764;48.114;11.670;2022-07-04T05:09:19;1.33;;;1.20;;
19260;SDS011;9764;48.114;11.670;2022-07-04T05:11:48;1.98;;;1.17;;
19260;SDS011;9764;48.114;11.670;2022-07-04T05:14:16;1.13;;;1.00;;
19260;SDS011;9764;48.114;11.670;2022-07-04T05:16:46;2.20;;;1.23;;
19260;SDS011;9764;48.114;11.670;2022-07-04T05:19:15;1.85;;;1.10;;
19260;SDS011;9764;48.114;11.670;2022-07-04T05:21:43;2.45;;;1.20;;
19260;SDS011;9764;48.114;11.670;2022-07-04T05:24:14;1.52;;;1.20;;
19260;SDS011;9764;48.114;11.670;2022-07-04T05:26:43;1.15;;;1.05;;
19260;SDS011;9764;48.114;11.670;2022-07-04T05:29:11;2.65;;;1.30;;
19260;SDS011;9764;48.114;11.670;2022-07-04T05:31:40;1.40;;;1.30;;
19260;SDS011;9764;48.114;11.670;2022-07-04T05:34:09;1.98;;;1.20;;
19260;SDS011;9764;48.114;11.670;2022-07-04T05:36:38;1.20;;;1.10;;
19260;SDS011;9764;48.114;11.670;2022-07-04T05:39:12;2.33;;;1.10;;
19260;SDS011;9764;48.114;11.670;2022-07-04T05:41:40;1.75;;;1.10;;
19260;SDS011;9764;48.114;11.670;2022-07-04T05:44:09;1.20;;;1.10;;
19260;SDS011;9764;48.114;11.670;2022-07-04T05:46:37;0.90;;;0.90;;
19260;SDS011;9764;48.114;11.670;2022-07-04T05:49:09;1.25;;;1.10;;
19260;SDS011;9764;48.114;11.670;2022-07-04T05:51:37;1.25;;;1.15;;
19260;SDS011;9764;48.114;11.670;2022-07-04T05:54:06;2.20;;;1.20;;
19260;SDS011;9764;48.114;11.670;2022-07-04T05:56:34;1.17;;;1.08;;
19260;SDS011;9764;48.114;11.670;2022-07-04T05:59:04;1.27;;;1.17;;
19260;SDS011;9764;48.114;11.670;2022-07-04T06:01:32;1.95;;;1.40;;
19260;SDS011;9764;48.114;11.670;2022-07-04T06:04:01;1.10;;;0.90;;
19260;SDS011;9764;48.114;11.670;2022-07-04T06:06:31;2.58;;;1.30;;
19260;SDS011;9764;48.114;11.670;2022-07-04T06:09:00;2.08;;;1.30;;
19260;SDS011;9764;48.114;11.670;2022-07-04T06:11:29;1.60;;;1.27;;
19260;SDS011;9764;48.114;11.670;2022-07-04T06:13:58;1.02;;;1.02;;
19260;SDS011;9764;48.114;11.670;2022-07-04T06:16:26;1.95;;;1.30;;
19260;SDS011;9764;48.114;11.670;2022-07-04T06:18:55;1.58;;;1.20;;
19260;SDS011;9764;48.114;11.670;2022-07-04T06:21:23;1.30;;;1.20;;
19260;SDS011;9764;48.114;11.670;2022-07-04T06:23:53;1.35;;;1.20;;
19260;SDS011;9764;48.114;11.670;2022-07-04T06:26:24;1.40;;;1.20;;
19260;SDS011;9764;48.114;11.670;2022-07-04T06:28:53;1.65;;;1.30;;
19260;SDS011;9764;48.114;11.670;2022-07-04T06:31:21;1.85;;;1.23;;
19260;SDS011;9764;48.114;11.670;2022-07-04T06:33:50;1.30;;;1.20;;
19260;SDS011;9764;48.114;11.670;2022-07-04T06:36:35;1.30;;;1.20;;
19260;SDS011;9764;48.114;11.670;2022-07-04T06:39:05;1.38;;;1.27;;
19260;SDS011;9764;48.114;11.670;2022-07-04T06:41:33;1.15;;;1.00;;
19260;SDS011;9764;48.114;11.670;2022-07-04T06:44:02;1.80;;;1.23;;
19260;SDS011;9764;48.114;11.670;2022-07-04T06:46:35;1.40;;;1.30;;
19260;SDS011;9764;48.114;11.670;2022-07-04T06:49:04;1.75;;;1.10;;
19260;SDS011;9764;48.114;11.670;2022-07-04T06:51:32;2.05;;;1.10;;
19260;SDS011;9764;48.114;11.670;2022-07-04T06:54:01;1.50;;;1.20;;
19260;SDS011;9764;48.114;11.670;2022-07-04T06:56:31;1.13;;;1.02;;
19260;SDS011;9764;48.114;11.670;2022-07-04T06:58:59;1.23;;;1.13;;
19260;SDS011;9764;48.114;11.670;2022-07-04T07:01:29;2.15;;;1.52;;
19260;SDS011;9764;48.114;11.670;2022-07-04T07:03:58;1.58;;;1.48;;
19260;SDS011;9764;48.114;11.670;2022-07-04T07:06:27;1.60;;;1.23;;
19260;SDS011;9764;48.114;11.670;2022-07-04T07:08:55;2.03;;;1.45;;
19260;SDS011;9764;48.114;11.670;2022-07-04T07:11:23;1.70;;;1.50;;
19260;SDS011;9764;48.114;11.670;2022-07-04T07:13:53;2.03;;;1.25;;
19260;SDS011;9764;48.114;11.670;2022-07-04T07:16:22;1.70;;;1.60;;
19260;SDS011;9764;48.114;11.670;2022-07-04T07:18:52;1.48;;;1.35;;
